Edmonton Stony Plain Alta., Canada
Current Conditions -  °F | °C
As of 5:00 AM on Saturday 20 Dec 2014 (Local Time) from CZVL Reporting Station
Haze Haze  
Wind Chill: 10°   Ceiling: Unl
Heat Index: 10°   Visibility: 4mi
Dew Point: 10°   Wind: 3mph
Humidity: 100%   Direction: 180°S
Pressure: 29.69"   Gusts: NA
Location:  53.53°N, 114.1°W
Report Text: CZVL 201200Z AUTO 18003KT 150V210 4SM BR CLR M12/M12 A2969 RMK SLP102
Loading
Personal Weather Stations






























Interactive Weather Map New forecast layout! Learn more

10-Day Weather Forecast

Advertisements
Track Severe Weather on mobile